Time;durP1;ratioP1;P1;durP2;ratioP2;P2;SDS_P1;SDS_P2;PMS_P1;PMS_P2;Temp;Humidity;BMP_temperature;BMP_pressure;BME280_temperature;BME280_humidity;BME280_pressure;Samples;Min_cycle;Max_cycle;Signal;HPM_P1;HPM_P2
2024/02/02 00:00:21;;;;;;;15.73;3.37;;;3.60;99.90;;;;;;5052278;28;20209;-87
2024/02/02 00:03:08;;;;;;;11.63;3.10;;;3.50;99.90;;;;;;5052212;28;20202;-87
2024/02/02 00:05:55;;;;;;;11.00;3.20;;;3.60;99.90;;;;;;5052248;28;20226;-88
2024/02/02 00:08:43;;;;;;;12.73;3.67;;;3.60;99.90;;;;;;5051172;28;20466;-87
2024/02/02 00:11:30;;;;;;;16.37;3.77;;;3.60;99.90;;;;;;5036449;28;20230;-88
2024/02/02 00:14:18;;;;;;;16.43;3.77;;;3.60;99.90;;;;;;5052278;28;20193;-85
2024/02/02 00:17:05;;;;;;;17.40;4.07;;;3.60;99.90;;;;;;5037924;28;20574;-87
2024/02/02 00:19:53;;;;;;;16.23;4.03;;;3.50;99.90;;;;;;5037549;28;20307;-87
2024/02/02 00:22:40;;;;;;;17.80;3.70;;;3.50;99.90;;;;;;5052148;28;20191;-87
2024/02/02 00:25:28;;;;;;;17.63;4.20;;;3.50;99.90;;;;;;5038067;28;20229;-87
2024/02/02 00:28:16;;;;;;;11.80;3.90;;;3.60;99.90;;;;;;5037674;28;20714;-87
2024/02/02 00:31:03;;;;;;;12.37;4.20;;;3.50;99.90;;;;;;5052066;28;20699;-87
2024/02/02 00:33:51;;;;;;;17.27;4.63;;;3.50;99.90;;;;;;5037999;28;20236;-86
2024/02/02 00:36:38;;;;;;;15.27;4.00;;;3.50;99.90;;;;;;5052932;28;20317;-87
2024/02/02 00:39:26;;;;;;;12.03;3.47;;;3.60;99.90;;;;;;5038202;28;20672;-87
2024/02/02 00:42:13;;;;;;;14.10;3.80;;;3.60;99.90;;;;;;5036736;28;20292;-87
2024/02/02 00:45:01;;;;;;;17.80;3.50;;;3.60;99.90;;;;;;5051447;28;20205;-88
2024/02/02 00:47:49;;;;;;;16.90;3.40;;;3.60;99.90;;;;;;5038032;28;20222;-88
2024/02/02 00:50:37;;;;;;;10.90;2.70;;;3.60;99.90;;;;;;5050923;28;20214;-87
2024/02/02 00:53:24;;;;;;;12.00;2.70;;;3.60;99.90;;;;;;5052290;28;20674;-88
2024/02/02 00:56:11;;;;;;;11.07;3.00;;;3.70;99.90;;;;;;5052394;28;20194;-86
2024/02/02 00:58:59;;;;;;;17.93;2.93;;;3.70;99.90;;;;;;5052209;28;20194;-88
2024/02/02 01:01:46;;;;;;;14.43;2.80;;;3.80;99.90;;;;;;5041096;28;20651;-87
2024/02/02 01:04:34;;;;;;;11.63;2.47;;;3.80;99.90;;;;;;5042150;28;20711;-87
2024/02/02 01:07:21;;;;;;;10.10;2.90;;;3.90;99.90;;;;;;5055789;28;20228;-88
2024/02/02 01:10:12;;;;;;;10.60;2.50;;;3.90;99.90;;;;;;5055858;28;20198;-88
2024/02/02 01:12:59;;;;;;;11.83;3.03;;;3.90;99.90;;;;;;5041299;28;20211;-87
2024/02/02 01:15:47;;;;;;;12.53;2.60;;;4.00;99.90;;;;;;5055812;28;20193;-87
2024/02/02 01:18:35;;;;;;;13.63;2.97;;;3.90;99.90;;;;;;5047299;28;20191;-87
2024/02/02 01:21:23;;;;;;;12.90;3.20;;;3.90;99.90;;;;;;5058323;28;20254;-85
2024/02/02 01:24:10;;;;;;;11.00;2.77;;;3.90;99.90;;;;;;5041957;28;20191;-87
2024/02/02 01:26:58;;;;;;;13.57;3.00;;;3.90;99.90;;;;;;5055525;28;20222;-87
2024/02/02 01:29:45;;;;;;;12.90;2.80;;;3.90;99.90;;;;;;5055006;28;20203;-85
2024/02/02 01:32:33;;;;;;;16.47;2.60;;;3.80;99.90;;;;;;5040427;28;20198;-86
2024/02/02 01:35:21;;;;;;;14.07;2.97;;;3.80;99.90;;;;;;5054416;28;20195;-86
2024/02/02 01:38:10;;;;;;;14.70;3.00;;;3.80;99.90;;;;;;5054428;28;20654;-87
2024/02/02 01:40:57;;;;;;;15.50;2.77;;;3.80;99.90;;;;;;5040085;28;20196;-86
2024/02/02 01:43:44;;;;;;;13.33;2.93;;;3.70;99.90;;;;;;5054408;28;20281;-87
2024/02/02 01:46:32;;;;;;;12.40;2.50;;;3.70;99.90;;;;;;5041237;28;20301;-87
2024/02/02 01:49:20;;;;;;;15.07;2.83;;;3.70;99.90;;;;;;5040097;28;20316;-86
2024/02/02 01:52:08;;;;;;;13.57;2.60;;;3.70;99.90;;;;;;5054123;28;20281;-88
2024/02/02 01:54:56;;;;;;;9.70;2.53;;;3.80;99.90;;;;;;5054140;28;20206;-87
2024/02/02 01:57:43;;;;;;;12.87;3.30;;;3.80;99.90;;;;;;5040090;28;20211;-87
2024/02/02 02:00:31;;;;;;;12.20;2.57;;;3.80;99.90;;;;;;5054013;28;20281;-87
2024/02/02 02:03:18;;;;;;;10.73;2.70;;;3.70;99.90;;;;;;5054388;28;20213;-88
2024/02/02 02:06:06;;;;;;;12.07;2.93;;;3.70;99.90;;;;;;5054456;28;20230;-87
2024/02/02 02:08:54;;;;;;;12.00;2.50;;;3.70;99.90;;;;;;5053810;28;20417;-86
2024/02/02 02:11:43;;;;;;;9.33;2.50;;;3.60;99.90;;;;;;5052657;28;20237;-86
2024/02/02 02:14:30;;;;;;;10.03;2.77;;;3.70;99.90;;;;;;5053555;28;20199;-87
2024/02/02 02:17:18;;;;;;;13.90;3.07;;;3.60;99.90;;;;;;5053732;28;20198;-86
2024/02/02 02:20:10;;;;;;;13.97;2.83;;;3.70;99.90;;;;;;5053810;28;20273;-87
2024/02/02 02:22:57;;;;;;;14.03;3.23;;;3.60;99.90;;;;;;5040711;28;20281;-87
2024/02/02 02:25:45;;;;;;;15.90;2.93;;;3.70;99.90;;;;;;5054139;28;20650;-86
2024/02/02 02:28:33;;;;;;;16.83;3.23;;;3.70;99.90;;;;;;5053838;28;20206;-87
2024/02/02 02:31:20;;;;;;;17.57;3.30;;;3.70;99.90;;;;;;5054592;28;20230;-86
2024/02/02 02:34:07;;;;;;;13.33;3.27;;;3.70;99.90;;;;;;5039165;28;20708;-87
2024/02/02 02:36:55;;;;;;;15.27;3.70;;;3.70;99.90;;;;;;5053863;28;20186;-86
2024/02/02 02:39:43;;;;;;;13.20;3.30;;;3.70;99.90;;;;;;5038107;28;20257;-87
2024/02/02 02:42:30;;;;;;;12.60;2.83;;;3.70;99.90;;;;;;5054207;28;20219;-87
2024/02/02 02:45:18;;;;;;;11.97;3.37;;;3.80;99.90;;;;;;5054074;28;20271;-86
2024/02/02 02:48:05;;;;;;;13.53;3.00;;;3.70;99.90;;;;;;5038819;28;20219;-87
2024/02/02 02:50:53;;;;;;;12.60;3.03;;;3.70;99.90;;;;;;5053889;28;20222;-86
2024/02/02 02:53:41;;;;;;;16.10;3.53;;;3.80;99.90;;;;;;5052954;28;20194;-86
2024/02/02 02:56:28;;;;;;;16.40;3.50;;;3.80;99.90;;;;;;5052280;28;20215;-86
2024/02/02 02:59:16;;;;;;;15.00;3.43;;;3.70;99.90;;;;;;5053585;28;20191;-85
2024/02/02 03:02:04;;;;;;;12.70;3.30;;;3.70;99.90;;;;;;5053318;28;20564;-86
2024/02/02 03:04:51;;;;;;;11.77;3.00;;;3.70;99.90;;;;;;5052241;28;20233;-86
2024/02/02 03:07:39;;;;;;;14.17;2.97;;;3.70;99.90;;;;;;5039889;28;20293;-86
2024/02/02 03:10:28;;;;;;;14.10;3.33;;;3.60;99.90;;;;;;5053127;28;20676;-87
2024/02/02 03:13:16;;;;;;;10.60;3.00;;;3.70;99.90;;;;;;5038920;28;20209;-86
2024/02/02 03:16:03;;;;;;;13.83;2.70;;;3.60;99.90;;;;;;5053449;28;20195;-87
2024/02/02 03:18:51;;;;;;;14.37;3.13;;;3.60;99.90;;;;;;5031330;28;20281;-87
2024/02/02 03:21:38;;;;;;;12.73;2.90;;;3.60;99.90;;;;;;5052844;28;20203;-86
2024/02/02 03:24:27;;;;;;;14.70;3.73;;;3.60;99.90;;;;;;5038550;28;20199;-87
2024/02/02 03:27:14;;;;;;;11.50;2.67;;;3.60;99.90;;;;;;5038019;28;20227;-86
2024/02/02 03:30:03;;;;;;;12.30;2.83;;;3.60;99.90;;;;;;5038125;28;20194;-87
2024/02/02 03:32:50;;;;;;;18.13;3.57;;;3.60;99.90;;;;;;5038699;28;20228;-86
2024/02/02 03:35:38;;;;;;;12.27;2.87;;;3.60;99.90;;;;;;5053038;28;20692;-86
2024/02/02 03:38:25;;;;;;;14.63;3.10;;;3.60;99.90;;;;;;5051728;28;20328;-86
2024/02/02 03:41:13;;;;;;;16.47;2.97;;;3.60;99.90;;;;;;5038568;28;20669;-86
2024/02/02 03:44:01;;;;;;;12.40;2.70;;;3.70;99.90;;;;;;5052722;28;20651;-86
2024/02/02 03:46:48;;;;;;;17.80;3.03;;;3.70;99.90;;;;;;5052527;28;20281;-87
2024/02/02 03:49:37;;;;;;;19.53;3.00;;;3.60;99.90;;;;;;5052390;28;20225;-87
2024/02/02 03:52:25;;;;;;;15.70;2.73;;;3.70;99.90;;;;;;5052511;28;20187;-86
2024/02/02 03:55:12;;;;;;;15.23;2.93;;;3.70;99.90;;;;;;5052518;28;20274;-87
2024/02/02 03:58:01;;;;;;;20.73;3.67;;;3.70;99.90;;;;;;5053619;28;20305;-87
2024/02/02 04:00:49;;;;;;;16.87;3.17;;;3.70;99.90;;;;;;5053047;28;20202;-87
2024/02/02 04:03:36;;;;;;;14.43;3.53;;;3.60;99.90;;;;;;5052137;28;20201;-87
2024/02/02 04:06:23;;;;;;;13.77;2.87;;;3.60;99.90;;;;;;5052641;28;20228;-87
2024/02/02 04:09:11;;;;;;;18.10;3.20;;;3.50;99.90;;;;;;5052815;28;20675;-87
2024/02/02 04:11:59;;;;;;;14.97;2.70;;;3.50;99.90;;;;;;5052815;28;20215;-87
2024/02/02 04:14:46;;;;;;;13.90;2.90;;;3.50;99.90;;;;;;5052776;28;20190;-86
2024/02/02 04:17:33;;;;;;;17.80;2.90;;;3.50;99.90;;;;;;5024263;28;20198;-87
2024/02/02 04:20:21;;;;;;;21.93;3.10;;;3.50;99.90;;;;;;5052762;28;20197;-86
2024/02/02 04:23:08;;;;;;;16.80;3.80;;;3.50;99.90;;;;;;5051563;28;20292;-87
2024/02/02 04:25:56;;;;;;;16.10;3.20;;;3.50;99.90;;;;;;5037803;28;20230;-87
2024/02/02 04:28:44;;;;;;;18.93;3.30;;;3.50;99.90;;;;;;5051974;28;20218;-86
2024/02/02 04:31:31;;;;;;;12.27;3.03;;;3.40;99.90;;;;;;5053046;28;20662;-86
2024/02/02 04:34:18;;;;;;;13.90;2.77;;;3.30;99.90;;;;;;5053886;28;20266;-87
2024/02/02 04:37:06;;;;;;;12.90;2.83;;;3.30;99.90;;;;;;5058672;28;20332;-86
2024/02/02 04:39:53;;;;;;;15.73;3.30;;;3.40;99.90;;;;;;5058661;28;20239;-87
2024/02/02 04:42:41;;;;;;;18.87;3.33;;;3.30;99.90;;;;;;5057461;28;20216;-86
2024/02/02 04:45:28;;;;;;;16.47;2.90;;;3.30;99.90;;;;;;5059289;28;20666;-86
2024/02/02 04:48:15;;;;;;;18.23;2.97;;;3.30;99.90;;;;;;5058535;28;20694;-84
2024/02/02 04:51:03;;;;;;;16.83;3.93;;;3.30;99.90;;;;;;5059223;28;20722;-87
2024/02/02 04:53:51;;;;;;;22.70;3.53;;;3.30;99.90;;;;;;5059904;28;20194;-86
2024/02/02 04:56:38;;;;;;;19.27;3.33;;;3.30;99.90;;;;;;5059216;28;20349;-85
2024/02/02 04:59:25;;;;;;;17.20;3.27;;;3.30;99.90;;;;;;5044084;28;20193;-86
2024/02/02 05:02:13;;;;;;;21.00;3.53;;;3.30;99.90;;;;;;5059069;28;20206;-86
2024/02/02 05:05:01;;;;;;;16.13;2.93;;;3.30;99.90;;;;;;5044188;28;20261;-87
2024/02/02 05:07:49;;;;;;;16.23;3.13;;;3.30;99.90;;;;;;5058484;28;20675;-87
2024/02/02 05:10:36;;;;;;;17.40;2.97;;;3.30;99.90;;;;;;5043368;28;20221;-87
2024/02/02 05:13:24;;;;;;;14.23;2.87;;;3.40;99.90;;;;;;5043340;28;20214;-87
2024/02/02 05:16:11;;;;;;;17.43;3.07;;;3.40;99.90;;;;;;5043399;28;20202;-88
2024/02/02 05:19:02;;;;;;;16.43;2.90;;;3.40;99.90;;;;;;5059115;28;20204;-87
2024/02/02 05:21:49;;;;;;;25.10;3.33;;;3.50;99.90;;;;;;5058464;28;20685;-86
2024/02/02 05:24:36;;;;;;;19.50;2.90;;;3.50;99.90;;;;;;5058746;28;20191;-87
2024/02/02 05:27:32;;;;;;;12.43;2.83;;;3.50;99.90;;;;;;5058895;28;20698;-87
2024/02/02 05:30:20;;;;;;;14.67;3.10;;;3.60;99.90;;;;;;5059129;28;20190;-87
2024/02/02 05:33:08;;;;;;;17.73;3.17;;;3.60;99.90;;;;;;5058161;28;20281;-88
2024/02/02 05:35:55;;;;;;;19.53;2.80;;;3.60;99.90;;;;;;5057058;28;20197;-87
2024/02/02 05:38:43;;;;;;;20.80;3.07;;;3.60;99.90;;;;;;5057549;28;20225;-88
2024/02/02 05:41:30;;;;;;;17.97;3.33;;;3.50;99.90;;;;;;5057686;28;20261;-87
2024/02/02 05:44:17;;;;;;;19.37;3.33;;;3.60;99.90;;;;;;5059193;28;20195;-86
2024/02/02 05:47:04;;;;;;;18.77;3.30;;;3.60;99.90;;;;;;5041719;28;20289;-86
2024/02/02 05:49:52;;;;;;;17.63;3.23;;;3.60;99.90;;;;;;5054549;28;20215;-89
2024/02/02 05:52:39;;;;;;;18.07;3.20;;;3.50;99.90;;;;;;5039630;28;20643;-90
2024/02/02 05:55:27;;;;;;;16.03;3.23;;;3.50;99.90;;;;;;5055199;28;20203;-91
2024/02/02 05:58:14;;;;;;;15.10;3.00;;;3.50;99.90;;;;;;5056540;28;20365;-92
2024/02/02 06:01:01;;;;;;;16.77;2.93;;;3.50;99.90;;;;;;5054396;28;20281;-91
2024/02/02 06:03:49;;;;;;;21.90;3.67;;;3.40;99.90;;;;;;5040691;28;20188;-88
2024/02/02 06:06:37;;;;;;;20.60;3.63;;;3.40;99.90;;;;;;5040288;28;20233;-88
2024/02/02 06:09:24;;;;;;;14.60;3.13;;;3.30;99.90;;;;;;5039566;28;20276;-89
2024/02/02 06:12:12;;;;;;;15.63;3.30;;;3.40;99.90;;;;;;5054930;28;20226;-87
2024/02/02 06:14:59;;;;;;;15.80;3.10;;;3.30;99.90;;;;;;5055019;28;20190;-90
2024/02/02 06:17:46;;;;;;;14.90;2.97;;;3.40;99.90;;;;;;5055951;28;20631;-90
2024/02/02 06:20:36;;;;;;;19.43;3.20;;;3.30;99.90;;;;;;5051362;28;20199;-89
2024/02/02 06:23:24;;;;;;;19.27;3.40;;;3.30;99.90;;;;;;5039088;28;20742;-90
2024/02/02 06:26:11;;;;;;;20.50;3.63;;;3.30;99.90;;;;;;5054377;28;20197;-91
2024/02/02 06:28:59;;;;;;;20.83;3.37;;;3.30;99.90;;;;;;5038674;28;20592;-90
2024/02/02 06:31:46;;;;;;;19.10;4.30;;;3.30;99.90;;;;;;5054401;28;20195;-90
2024/02/02 06:34:34;;;;;;;17.47;3.30;;;3.20;99.90;;;;;;5055007;28;20199;-90
2024/02/02 06:37:26;;;;;;;14.90;3.60;;;3.20;99.90;;;;;;5054292;28;20197;-90
2024/02/02 06:40:14;;;;;;;18.37;3.20;;;3.20;99.90;;;;;;5054059;28;20203;-89
2024/02/02 06:43:04;;;;;;;15.50;3.63;;;3.10;99.90;;;;;;5039089;28;20584;-89
2024/02/02 06:45:51;;;;;;;17.87;3.50;;;3.10;99.90;;;;;;5054681;28;20281;-90
2024/02/02 06:48:38;;;;;;;18.50;3.40;;;3.20;99.90;;;;;;5053663;28;20211;-90
2024/02/02 06:51:26;;;;;;;18.57;3.63;;;3.10;99.90;;;;;;5038809;28;20205;-90
2024/02/02 06:54:13;;;;;;;20.23;3.77;;;3.10;99.90;;;;;;5052793;28;20195;-90
2024/02/02 06:57:01;;;;;;;14.73;3.60;;;3.10;99.90;;;;;;5056525;28;20262;-89
2024/02/02 06:59:49;;;;;;;21.23;3.77;;;3.20;99.90;;;;;;5043329;28;20274;-89
2024/02/02 07:02:38;;;;;;;14.33;3.13;;;3.20;99.90;;;;;;5042807;28;20264;-91
2024/02/02 07:05:25;;;;;;;18.50;3.33;;;3.20;99.90;;;;;;5056468;28;20256;-90
2024/02/02 07:08:13;;;;;;;19.90;3.83;;;3.20;99.90;;;;;;5043922;28;20206;-90
2024/02/02 07:11:33;;;;;;;20.53;4.23;;;3.40;99.90;;;;;;5053306;28;20199;-88
2024/02/02 07:14:42;;;;;;;21.60;4.00;;;3.30;99.90;;;;;;5053834;28;20194;-86
2024/02/02 07:17:36;;;;;;;18.83;3.33;;;3.30;99.90;;;;;;5053768;28;20195;-86
2024/02/02 07:20:24;;;;;;;17.33;3.57;;;3.30;99.90;;;;;;5039129;28;20191;-87
2024/02/02 07:23:14;;;;;;;14.07;3.20;;;3.30;99.90;;;;;;5052987;28;20604;-87
2024/02/02 07:26:04;;;;;;;19.43;3.60;;;3.30;99.90;;;;;;5037690;28;20575;-86
2024/02/02 07:28:52;;;;;;;17.53;3.90;;;3.30;99.90;;;;;;5038280;28;20214;-88
2024/02/02 07:31:47;;;;;;;19.43;3.63;;;3.40;99.90;;;;;;5052844;28;20190;-87
2024/02/02 07:34:42;;;;;;;16.97;3.43;;;3.30;99.90;;;;;;5054412;28;20204;-88
2024/02/02 07:37:47;;;;;;;22.13;3.27;;;3.30;99.90;;;;;;5052468;28;20204;-88
2024/02/02 07:41:09;;;;;;;16.60;3.30;;;3.50;99.90;;;;;;5038636;28;20195;-87
2024/02/02 07:43:59;;;;;;;16.07;2.97;;;3.50;99.90;;;;;;5037806;28;20230;-88
2024/02/02 07:46:47;;;;;;;13.10;3.27;;;3.60;99.90;;;;;;5038682;28;20546;-88
2024/02/02 07:49:34;;;;;;;18.30;3.67;;;3.60;99.90;;;;;;5053107;28;20760;-85
2024/02/02 07:52:22;;;;;;;21.20;3.30;;;3.70;99.90;;;;;;5052583;28;20194;-88
2024/02/02 07:55:09;;;;;;;16.70;3.67;;;3.70;99.90;;;;;;5053623;28;20199;-86
2024/02/02 07:57:56;;;;;;;16.77;4.03;;;3.90;99.90;;;;;;5037801;28;20215;-86
2024/02/02 08:00:46;;;;;;;15.03;3.20;;;4.30;99.90;;;;;;5051860;28;20202;-88
2024/02/02 08:03:34;;;;;;;17.27;3.60;;;4.70;99.90;;;;;;5052271;28;20690;-85
2024/02/02 08:06:22;;;;;;;17.07;2.97;;;4.90;99.90;;;;;;5052410;28;20693;-85
2024/02/02 08:09:09;;;;;;;21.60;3.47;;;5.10;99.90;;;;;;5037274;28;20214;-88
2024/02/02 08:11:57;;;;;;;15.30;3.40;;;5.30;99.90;;;;;;5051798;28;20753;-84
2024/02/02 08:14:44;;;;;;;17.70;3.30;;;5.50;99.90;;;;;;5053026;28;20285;-86
2024/02/02 08:17:31;;;;;;;14.90;3.33;;;5.70;99.90;;;;;;5051712;28;20249;-83
2024/02/02 08:20:19;;;;;;;13.70;3.10;;;5.60;99.90;;;;;;5053062;28;20576;-83
2024/02/02 08:23:07;;;;;;;11.20;3.03;;;5.70;99.90;;;;;;5052348;28;20691;-84
2024/02/02 08:25:54;;;;;;;16.33;3.50;;;5.70;99.90;;;;;;5037564;28;20220;-85
2024/02/02 08:28:42;;;;;;;14.60;3.27;;;5.80;99.90;;;;;;5051668;28;20219;-87
2024/02/02 08:31:44;;;;;;;17.90;3.07;;;5.70;99.90;;;;;;5052924;28;20196;-85
2024/02/02 08:34:32;;;;;;;16.37;3.23;;;5.70;99.90;;;;;;5039293;28;20200;-87
2024/02/02 08:37:19;;;;;;;13.93;3.33;;;5.60;99.90;;;;;;5052302;28;20240;-84
2024/02/02 08:40:22;;;;;;;14.67;3.43;;;5.70;99.90;;;;;;5055960;28;20806;-83
2024/02/02 08:43:15;;;;;;;15.43;3.20;;;5.80;99.90;;;;;;5038125;28;20225;-85
2024/02/02 08:46:06;;;;;;;14.63;3.10;;;5.70;99.90;;;;;;5037091;28;20190;-80
2024/02/02 08:48:55;;;;;;;18.13;4.07;;;5.70;99.90;;;;;;5051770;28;20227;-82
2024/02/02 08:51:49;;;;;;;15.13;3.60;;;5.50;99.90;;;;;;5051181;28;20196;-83
2024/02/02 08:54:42;;;;;;;16.63;3.50;;;5.70;99.90;;;;;;5052693;28;20228;-82
2024/02/02 08:57:35;;;;;;;15.53;3.33;;;5.90;99.90;;;;;;5037043;28;20554;-81
2024/02/02 09:00:40;;;;;;;19.33;3.43;;;6.20;99.90;;;;;;5038028;28;20192;-82
2024/02/02 09:03:45;;;;;;;15.77;3.17;;;6.00;99.90;;;;;;5052928;28;20307;-81
2024/02/02 09:06:44;;;;;;;15.63;2.87;;;5.60;99.90;;;;;;5038594;28;20234;-88
2024/02/02 09:09:32;;;;;;;16.17;3.40;;;5.50;99.90;;;;;;5036418;28;20257;-84
2024/02/02 09:12:23;;;;;;;13.33;3.37;;;5.70;99.90;;;;;;5036509;28;20626;-84
2024/02/02 09:15:18;;;;;;;16.33;3.40;;;5.60;99.90;;;;;;5035744;28;20199;-83
2024/02/02 09:18:11;;;;;;;20.73;3.30;;;5.40;99.90;;;;;;5052234;28;20195;-83
2024/02/02 09:21:03;;;;;;;16.80;3.40;;;5.30;99.90;;;;;;5050872;28;20559;-84
2024/02/02 09:23:51;;;;;;;13.83;3.40;;;5.30;99.90;;;;;;5040719;28;20539;-81
2024/02/02 09:26:39;;;;;;;18.53;3.40;;;5.50;99.90;;;;;;5054573;28;20372;-85
2024/02/02 09:29:26;;;;;;;13.83;2.90;;;5.60;99.90;;;;;;5055380;28;20609;-84
2024/02/02 09:32:17;;;;;;;14.87;3.70;;;5.50;99.90;;;;;;5040872;28;20191;-86
2024/02/02 09:35:25;;;;;;;14.47;3.30;;;5.30;99.90;;;;;;5055121;28;20652;-83
2024/02/02 09:38:12;;;;;;;19.90;3.53;;;5.30;99.90;;;;;;5054663;28;20222;-84
2024/02/02 09:41:06;;;;;;;19.87;3.33;;;5.20;99.90;;;;;;5040185;28;20194;-85
2024/02/02 09:44:14;;;;;;;19.67;3.47;;;5.10;99.90;;;;;;5054855;28;20198;-85
2024/02/02 09:47:34;;;;;;;17.30;3.20;;;4.90;99.90;;;;;;5068096;28;20288;-85
2024/02/02 09:50:47;;;;;;;17.17;3.50;;;5.10;99.90;;;;;;5074826;28;20685;-84
2024/02/02 09:54:06;;;;;;;17.90;3.83;;;5.30;99.90;;;;;;5075717;28;20199;-85
2024/02/02 09:56:56;;;;;;;19.27;4.07;;;5.40;99.90;;;;;;5074528;28;20291;-84
2024/02/02 10:00:06;;;;;;;14.33;3.67;;;5.50;99.90;;;;;;5060261;28;20304;-87
2024/02/02 10:03:26;;;;;;;21.43;4.10;;;5.60;99.90;;;;;;5060471;28;20607;-83
2024/02/02 10:06:35;;;;;;;21.03;3.90;;;5.60;99.90;;;;;;5074533;28;20283;-89
2024/02/02 10:09:32;;;;;;;20.67;3.90;;;5.60;99.90;;;;;;5073844;28;20681;-82
2024/02/02 10:12:51;;;;;;;16.73;3.80;;;5.60;99.90;;;;;;5073785;28;20225;-83
2024/02/02 10:15:57;;;;;;;17.03;3.50;;;5.50;99.90;;;;;;5074449;28;20194;-83
2024/02/02 10:18:50;;;;;;;15.47;3.40;;;5.50;99.90;;;;;;5075113;28;20190;-83
2024/02/02 10:22:02;;;;;;;15.63;3.90;;;5.60;99.90;;;;;;5060553;28;20228;-84
2024/02/02 10:25:17;;;;;;;20.80;4.10;;;5.80;99.90;;;;;;5074990;28;20187;-88
2024/02/02 10:28:23;;;;;;;20.00;4.40;;;5.80;99.90;;;;;;5073640;28;20229;-81
2024/02/02 10:31:44;;;;;;;16.07;4.03;;;5.90;99.90;;;;;;5072539;28;20220;-84
2024/02/02 10:34:37;;;;;;;17.97;4.07;;;6.20;99.90;;;;;;5074214;28;20192;-82
2024/02/02 10:37:37;;;;;;;18.03;3.77;;;6.20;99.90;;;;;;5059214;28;20355;-82
2024/02/02 10:40:45;;;;;;;22.63;4.20;;;6.20;99.90;;;;;;5072823;28;20201;-83
2024/02/02 10:43:58;;;;;;;17.57;4.30;;;6.10;99.90;;;;;;5073363;28;20219;-84
2024/02/02 10:47:07;;;;;;;23.23;5.03;;;6.00;99.90;;;;;;5074354;28;20199;-85
2024/02/02 10:50:11;;;;;;;18.80;4.73;;;5.80;99.90;;;;;;5058561;28;20227;-80
2024/02/02 10:53:04;;;;;;;21.67;4.43;;;6.00;99.90;;;;;;5073401;28;20194;-80
2024/02/02 10:56:07;;;;;;;22.40;4.60;;;6.20;99.90;;;;;;5074221;28;20194;-81
2024/02/02 10:59:16;;;;;;;20.65;4.90;;;6.20;99.90;;;;;;5073843;28;20419;-89
2024/02/02 11:02:27;;;;;;;19.33;4.80;;;5.90;99.90;;;;;;5073320;28;20207;-87
2024/02/02 11:05:41;;;;;;;18.63;4.00;;;5.90;99.90;;;;;;5073236;28;20241;-84
2024/02/02 11:08:36;;;;;;;22.83;5.93;;;6.00;99.90;;;;;;5074578;28;20195;-83
2024/02/02 11:11:27;;;;;;;27.00;4.70;;;5.90;99.90;;;;;;5071846;28;20219;-82
2024/02/02 11:14:37;;;;;;;14.83;4.10;;;5.90;99.90;;;;;;5074609;28;20236;-82
2024/02/02 11:17:34;;;;;;;19.90;4.17;;;5.90;99.90;;;;;;5072327;28;20615;-81
2024/02/02 11:20:33;;;;;;;16.80;3.73;;;5.80;99.90;;;;;;5072503;28;20572;-80
2024/02/02 11:23:38;;;;;;;17.43;4.87;;;5.80;99.90;;;;;;5072965;28;20279;-79
2024/02/02 11:26:29;;;;;;;18.47;4.47;;;5.80;99.90;;;;;;5071426;28;20287;-79
2024/02/02 11:29:37;;;;;;;20.67;4.37;;;5.80;99.90;;;;;;5058803;28;20525;-80
2024/02/02 11:32:41;;;;;;;23.13;4.40;;;5.90;99.90;;;;;;5071781;28;20565;-80
2024/02/02 11:35:52;;;;;;;18.83;4.30;;;5.80;99.90;;;;;;5058353;28;20196;-81
2024/02/02 11:38:56;;;;;;;14.80;4.23;;;5.80;99.90;;;;;;5071877;28;20573;-81
2024/02/02 11:41:43;;;;;;;19.40;4.33;;;5.90;99.90;;;;;;5071114;28;20263;-79
2024/02/02 11:44:33;;;;;;;22.37;4.70;;;6.20;99.90;;;;;;5058345;28;20557;-79
2024/02/02 11:47:22;;;;;;;20.80;4.37;;;6.40;99.90;;;;;;5071178;28;20563;-80
2024/02/02 11:50:12;;;;;;;21.30;5.27;;;6.40;99.90;;;;;;5071582;28;20634;-80
2024/02/02 11:53:14;;;;;;;18.73;4.53;;;6.40;99.90;;;;;;5073902;28;20264;-80
2024/02/02 11:56:14;;;;;;;17.13;4.17;;;6.50;99.90;;;;;;5058247;28;20257;-81
2024/02/02 11:59:13;;;;;;;17.60;4.20;;;6.60;99.90;;;;;;5073515;28;20201;-83
2024/02/02 12:02:15;;;;;;;21.33;4.20;;;6.50;99.90;;;;;;5072024;28;20708;-80
2024/02/02 12:05:20;;;;;;;19.47;4.47;;;6.30;99.90;;;;;;5057753;28;20231;-82
2024/02/02 12:08:19;;;;;;;18.47;4.73;;;6.40;99.90;;;;;;5072346;28;20204;-82
2024/02/02 12:11:09;;;;;;;23.50;4.60;;;6.20;99.90;;;;;;5071142;28;20725;-81
2024/02/02 12:14:00;;;;;;;16.40;4.20;;;6.10;99.90;;;;;;5071548;28;20190;-85
2024/02/02 12:16:48;;;;;;;21.90;5.93;;;6.10;99.90;;;;;;5058323;28;20226;-83
2024/02/02 12:19:35;;;;;;;17.57;4.23;;;6.20;99.90;;;;;;5058119;28;20204;-81
2024/02/02 12:22:24;;;;;;;14.73;4.43;;;6.20;99.90;;;;;;5073352;28;20273;-84
2024/02/02 12:25:13;;;;;;;15.50;4.50;;;6.30;99.90;;;;;;5058115;28;20686;-82
2024/02/02 12:28:01;;;;;;;18.33;5.67;;;6.20;99.90;;;;;;5072769;28;20668;-82
2024/02/02 12:30:48;;;;;;;19.23;4.60;;;6.20;99.90;;;;;;5072176;28;20243;-81
2024/02/02 12:34:06;;;;;;;17.97;4.70;;;6.00;99.90;;;;;;5072198;28;20199;-81
2024/02/02 12:37:04;;;;;;;22.27;4.60;;;5.90;99.90;;;;;;4989264;28;20198;-83
2024/02/02 12:39:54;;;;;;;18.73;4.60;;;6.00;99.90;;;;;;4991633;28;20217;-83
2024/02/02 12:42:42;;;;;;;21.30;5.20;;;6.00;99.90;;;;;;4991189;28;20228;-81
2024/02/02 12:45:31;;;;;;;22.03;5.07;;;5.80;99.90;;;;;;4990405;28;20200;-79
2024/02/02 12:48:20;;;;;;;16.70;4.40;;;5.70;99.90;;;;;;4991101;28;20201;-79
2024/02/02 12:51:08;;;;;;;18.57;4.07;;;5.70;99.90;;;;;;4978189;28;20690;-81
2024/02/02 12:53:55;;;;;;;18.97;4.87;;;5.70;99.90;;;;;;4976728;28;20354;-79
2024/02/02 12:56:43;;;;;;;19.27;4.50;;;5.80;99.90;;;;;;4992521;28;20210;-80
2024/02/02 12:59:30;;;;;;;20.27;5.07;;;5.80;99.90;;;;;;4993953;28;20235;-80
2024/02/02 13:02:20;;;;;;;22.70;5.10;;;5.80;99.90;;;;;;4980677;28;20195;-80
2024/02/02 13:05:12;;;;;;;18.47;4.90;;;5.90;99.90;;;;;;4995233;28;20239;-81
2024/02/02 13:08:00;;;;;;;21.97;4.90;;;5.80;99.90;;;;;;4994164;28;20228;-80
2024/02/02 13:10:48;;;;;;;16.97;4.70;;;5.90;99.90;;;;;;4993505;28;20698;-80
2024/02/02 13:13:36;;;;;;;15.60;4.47;;;5.90;99.90;;;;;;4993556;28;20817;-82
2024/02/02 13:16:33;;;;;;;19.20;4.90;;;5.90;99.90;;;;;;4993562;28;20696;-83
2024/02/02 13:19:31;;;;;;;19.27;4.67;;;6.00;99.90;;;;;;4994466;28;20207;-83
2024/02/02 13:22:26;;;;;;;17.27;4.77;;;6.00;99.90;;;;;;4994087;28;20282;-83
2024/02/02 13:25:24;;;;;;;18.33;4.63;;;5.90;99.90;;;;;;4979865;28;20602;-83
2024/02/02 13:28:18;;;;;;;17.63;5.77;;;5.80;99.90;;;;;;5074611;28;20217;-82
2024/02/02 13:31:22;;;;;;;17.03;4.70;;;5.90;99.90;;;;;;5074848;28;20241;-82
2024/02/02 13:34:14;;;;;;;19.80;5.00;;;5.90;99.90;;;;;;5074331;28;20198;-81
2024/02/02 13:37:05;;;;;;;17.33;5.20;;;6.00;99.90;;;;;;5074798;28;20198;-82
2024/02/02 13:39:58;;;;;;;18.30;5.80;;;5.90;99.90;;;;;;5060899;28;20345;-82
2024/02/02 13:42:47;;;;;;;19.67;5.63;;;5.90;99.90;;;;;;5075455;28;20218;-83
2024/02/02 13:45:35;;;;;;;17.77;5.17;;;5.90;99.90;;;;;;5074013;28;20321;-84
2024/02/02 13:48:25;;;;;;;15.80;4.80;;;5.90;99.90;;;;;;5075540;28;20323;-81
2024/02/02 13:51:14;;;;;;;18.70;4.70;;;5.80;99.90;;;;;;5075420;28;20297;-82
2024/02/02 13:54:03;;;;;;;19.70;4.80;;;5.60;99.90;;;;;;5058671;28;20283;-83
2024/02/02 13:56:51;;;;;;;18.37;4.90;;;5.60;99.90;;;;;;5074897;28;20228;-81
2024/02/02 13:59:39;;;;;;;19.43;5.10;;;5.60;99.90;;;;;;5074296;28;20187;-82
2024/02/02 14:02:26;;;;;;;22.37;5.40;;;5.60;99.90;;;;;;5076023;28;20208;-82
2024/02/02 14:05:14;;;;;;;22.37;5.03;;;5.60;99.90;;;;;;5075722;28;20680;-80
2024/02/02 14:08:03;;;;;;;16.30;5.30;;;5.50;99.90;;;;;;5058656;28;20563;-79
2024/02/02 14:10:51;;;;;;;17.87;5.07;;;5.60;99.90;;;;;;5059086;28;20676;-82
2024/02/02 14:13:39;;;;;;;16.43;4.80;;;5.70;99.90;;;;;;5060407;28;20239;-80
2024/02/02 14:16:28;;;;;;;19.43;5.43;;;5.60;99.90;;;;;;5073739;28;20263;-84
2024/02/02 14:19:18;;;;;;;18.67;4.67;;;5.60;99.90;;;;;;5075570;28;20662;-85
2024/02/02 14:22:09;;;;;;;21.67;5.23;;;5.50;99.90;;;;;;5073838;28;20551;-84
2024/02/02 14:24:56;;;;;;;20.33;4.50;;;5.50;99.90;;;;;;5074924;28;20200;-85
2024/02/02 14:27:44;;;;;;;22.97;5.20;;;5.40;99.90;;;;;;5072427;28;20214;-85
2024/02/02 14:30:34;;;;;;;21.60;5.13;;;5.50;99.90;;;;;;5073429;28;20559;-83
2024/02/02 14:33:22;;;;;;;18.10;5.13;;;5.40;99.90;;;;;;5058636;28;20244;-84
2024/02/02 14:36:14;;;;;;;11.87;4.67;;;5.40;99.90;;;;;;5072939;28;20323;-85
2024/02/02 14:39:01;;;;;;;15.33;4.70;;;5.40;99.90;;;;;;5075392;28;20206;-85
2024/02/02 14:41:49;;;;;;;18.03;5.03;;;5.40;99.90;;;;;;5073186;28;20211;-87
2024/02/02 14:44:37;;;;;;;18.50;4.27;;;5.40;99.90;;;;;;5059773;28;20754;-86
2024/02/02 14:47:25;;;;;;;14.77;4.27;;;5.40;99.90;;;;;;5059109;28;20195;-79
2024/02/02 14:50:17;;;;;;;17.47;4.37;;;5.40;99.90;;;;;;5073128;28;20248;-85
2024/02/02 14:53:04;;;;;;;19.73;4.87;;;5.40;99.90;;;;;;5058320;28;20655;-82